sensor_id;sensor_type;location;lat;lon;timestamp;temperature;humidity
52435;DHT22;38354;52.892;6.148;2023-03-23T04:15:38;11.10;99.90
52435;DHT22;38354;52.892;6.148;2023-03-23T04:18:04;11.10;99.90
52435;DHT22;38354;52.892;6.148;2023-03-23T04:20:31;11.00;99.90
52435;DHT22;38354;52.892;6.148;2023-03-23T04:22:57;11.00;99.90
52435;DHT22;38354;52.892;6.148;2023-03-23T04:25:23;11.00;99.90
52435;DHT22;38354;52.892;6.148;2023-03-23T04:27:50;10.90;99.90
52435;DHT22;38354;52.892;6.148;2023-03-23T04:30:21;10.80;99.90
52435;DHT22;38354;52.892;6.148;2023-03-23T04:32:48;10.70;99.90
52435;DHT22;38354;52.892;6.148;2023-03-23T04:35:17;10.60;99.90
52435;DHT22;38354;52.892;6.148;2023-03-23T04:37:43;10.50;99.90
52435;DHT22;38354;52.892;6.148;2023-03-23T04:40:11;10.50;99.90
52435;DHT22;38354;52.892;6.148;2023-03-23T04:42:39;10.40;99.90
52435;DHT22;38354;52.892;6.148;2023-03-23T04:45:06;10.40;99.90
52435;DHT22;38354;52.892;6.148;2023-03-23T04:47:35;10.40;99.90
52435;DHT22;38354;52.892;6.148;2023-03-23T04:50:10;10.40;99.90
52435;DHT22;38354;52.892;6.148;2023-03-23T04:52:38;10.30;99.90
52435;DHT22;38354;52.892;6.148;2023-03-23T04:55:06;10.30;99.90
52435;DHT22;38354;52.892;6.148;2023-03-23T04:57:32;10.20;99.90
52435;DHT22;38354;52.892;6.148;2023-03-23T04:59:59;10.10;99.90
52435;DHT22;38354;52.892;6.148;2023-03-23T05:02:25;10.20;99.90
52435;DHT22;38354;52.892;6.148;2023-03-23T05:04:56;10.10;99.90
52435;DHT22;38354;52.892;6.148;2023-03-23T05:07:23;10.10;99.90
52435;DHT22;38354;52.892;6.148;2023-03-23T05:09:49;10.10;99.90
52435;DHT22;38354;52.892;6.148;2023-03-23T05:12:15;10.10;99.90
52435;DHT22;38354;52.892;6.148;2023-03-23T05:14:42;10.10;99.90
52435;DHT22;38354;52.892;6.148;2023-03-23T05:17:08;10.20;99.90
52435;DHT22;38354;52.892;6.148;2023-03-23T05:19:35;10.10;99.90
52435;DHT22;38354;52.892;6.148;2023-03-23T05:22:01;10.20;99.90
52435;DHT22;38354;52.892;6.148;2023-03-23T05:24:29;10.10;99.90
52435;DHT22;38354;52.892;6.148;2023-03-23T05:26:57;10.10;99.90
52435;DHT22;38354;52.892;6.148;2023-03-23T05:29:22;10.10;99.90
52435;DHT22;38354;52.892;6.148;2023-03-23T05:31:49;10.10;99.90
52435;DHT22;38354;52.892;6.148;2023-03-23T05:34:14;10.20;99.90
52435;DHT22;38354;52.892;6.148;2023-03-23T05:36:42;10.20;99.90
52435;DHT22;38354;52.892;6.148;2023-03-23T05:39:11;10.20;99.90
52435;DHT22;38354;52.892;6.148;2023-03-23T05:41:37;10.30;99.90
52435;DHT22;38354;52.892;6.148;2023-03-23T05:44:04;10.30;99.90
52435;DHT22;38354;52.892;6.148;2023-03-23T05:46:29;10.40;99.90
52435;DHT22;38354;52.892;6.148;2023-03-23T05:48:55;10.40;99.90
52435;DHT22;38354;52.892;6.148;2023-03-23T05:51:21;10.40;99.90
52435;DHT22;38354;52.892;6.148;2023-03-23T05:53:46;10.40;99.90
52435;DHT22;38354;52.892;6.148;2023-03-23T05:56:13;10.40;99.90
52435;DHT22;38354;52.892;6.148;2023-03-23T05:58:39;10.30;99.90
52435;DHT22;38354;52.892;6.148;2023-03-23T06:01:08;10.30;99.90
52435;DHT22;38354;52.892;6.148;2023-03-23T06:03:34;10.30;99.90
52435;DHT22;38354;52.892;6.148;2023-03-23T06:06:04;10.30;99.90
52435;DHT22;38354;52.892;6.148;2023-03-23T06:08:30;10.30;99.90
52435;DHT22;38354;52.892;6.148;2023-03-23T06:10:56;10.20;99.90
52435;DHT22;38354;52.892;6.148;2023-03-23T06:13:22;10.30;99.90
52435;DHT22;38354;52.892;6.148;2023-03-23T06:15:48;10.20;99.90
52435;DHT22;38354;52.892;6.148;2023-03-23T06:18:14;10.30;99.90
52435;DHT22;38354;52.892;6.148;2023-03-23T06:20:40;10.30;99.90
52435;DHT22;38354;52.892;6.148;2023-03-23T06:23:07;10.20;99.90
52435;DHT22;38354;52.892;6.148;2023-03-23T06:25:34;10.30;99.90
52435;DHT22;38354;52.892;6.148;2023-03-23T06:28:00;10.30;99.90
52435;DHT22;38354;52.892;6.148;2023-03-23T06:30:26;10.30;99.90
52435;DHT22;38354;52.892;6.148;2023-03-23T06:32:52;10.30;99.90
52435;DHT22;38354;52.892;6.148;2023-03-23T06:35:19;10.30;99.90
52435;DHT22;38354;52.892;6.148;2023-03-23T06:37:44;10.30;99.90
52435;DHT22;38354;52.892;6.148;2023-03-23T06:40:11;10.40;99.90
52435;DHT22;38354;52.892;6.148;2023-03-23T06:42:36;10.40;99.90
52435;DHT22;38354;52.892;6.148;2023-03-23T06:45:04;10.40;99.90
52435;DHT22;38354;52.892;6.148;2023-03-23T06:47:30;10.40;99.90
52435;DHT22;38354;52.892;6.148;2023-03-23T06:49:57;10.40;99.90
52435;DHT22;38354;52.892;6.148;2023-03-23T06:52:23;10.50;99.90
52435;DHT22;38354;52.892;6.148;2023-03-23T06:54:50;10.50;99.90
52435;DHT22;38354;52.892;6.148;2023-03-23T06:57:16;10.50;99.90
52435;DHT22;38354;52.892;6.148;2023-03-23T06:59:43;10.50;99.90
52435;DHT22;38354;52.892;6.148;2023-03-23T07:02:10;10.50;99.90
52435;DHT22;38354;52.892;6.148;2023-03-23T07:04:37;10.50;99.90
52435;DHT22;38354;52.892;6.148;2023-03-23T07:07:04;10.60;99.90
52435;DHT22;38354;52.892;6.148;2023-03-23T07:09:31;10.60;99.90
52435;DHT22;38354;52.892;6.148;2023-03-23T07:11:56;10.60;99.90
52435;DHT22;38354;52.892;6.148;2023-03-23T07:14:22;10.50;99.90
52435;DHT22;38354;52.892;6.148;2023-03-23T07:16:48;10.60;99.90
52435;DHT22;38354;52.892;6.148;2023-03-23T07:19:14;10.60;99.90
52435;DHT22;38354;52.892;6.148;2023-03-23T07:21:39;10.60;99.90
52435;DHT22;38354;52.892;6.148;2023-03-23T07:24:09;10.60;99.90
52435;DHT22;38354;52.892;6.148;2023-03-23T07:26:36;10.60;99.90
52435;DHT22;38354;52.892;6.148;2023-03-23T07:29:01;10.60;99.90
52435;DHT22;38354;52.892;6.148;2023-03-23T07:31:32;10.60;99.90
52435;DHT22;38354;52.892;6.148;2023-03-23T07:33:57;10.70;99.90
52435;DHT22;38354;52.892;6.148;2023-03-23T07:36:23;10.70;99.90
52435;DHT22;38354;52.892;6.148;2023-03-23T07:38:48;10.70;99.90
52435;DHT22;38354;52.892;6.148;2023-03-23T07:41:14;10.80;99.90
52435;DHT22;38354;52.892;6.148;2023-03-23T07:43:40;10.80;99.90
52435;DHT22;38354;52.892;6.148;2023-03-23T07:46:06;10.80;99.90
52435;DHT22;38354;52.892;6.148;2023-03-23T07:48:32;10.80;99.90
52435;DHT22;38354;52.892;6.148;2023-03-23T07:50:58;10.90;99.90
52435;DHT22;38354;52.892;6.148;2023-03-23T07:53:24;10.90;99.90
52435;DHT22;38354;52.892;6.148;2023-03-23T07:55:50;10.90;99.90
52435;DHT22;38354;52.892;6.148;2023-03-23T07:58:16;10.90;99.90
52435;DHT22;38354;52.892;6.148;2023-03-23T08:00:45;10.90;99.90
52435;DHT22;38354;52.892;6.148;2023-03-23T08:03:12;10.90;99.90
52435;DHT22;38354;52.892;6.148;2023-03-23T08:05:38;10.90;99.90
52435;DHT22;38354;52.892;6.148;2023-03-23T08:08:04;10.90;99.90
52435;DHT22;38354;52.892;6.148;2023-03-23T08:10:30;11.00;99.90
52435;DHT22;38354;52.892;6.148;2023-03-23T08:12:56;11.00;99.90
52435;DHT22;38354;52.892;6.148;2023-03-23T08:15:22;11.00;99.90
52435;DHT22;38354;52.892;6.148;2023-03-23T08:17:49;11.10;99.90
52435;DHT22;38354;52.892;6.148;2023-03-23T08:20:17;11.10;99.90
52435;DHT22;38354;52.892;6.148;2023-03-23T08:22:45;11.00;99.90
52435;DHT22;38354;52.892;6.148;2023-03-23T08:25:13;11.10;99.90
52435;DHT22;38354;52.892;6.148;2023-03-23T08:27:49;11.10;99.90
52435;DHT22;38354;52.892;6.148;2023-03-23T08:30:19;11.10;99.90
52435;DHT22;38354;52.892;6.148;2023-03-23T08:32:46;11.10;99.90
52435;DHT22;38354;52.892;6.148;2023-03-23T08:35:13;11.10;99.90
52435;DHT22;38354;52.892;6.148;2023-03-23T08:37:41;11.10;99.90
52435;DHT22;38354;52.892;6.148;2023-03-23T08:40:08;11.20;99.90
52435;DHT22;38354;52.892;6.148;2023-03-23T08:42:39;11.20;99.90
52435;DHT22;38354;52.892;6.148;2023-03-23T08:45:07;11.20;99.90
52435;DHT22;38354;52.892;6.148;2023-03-23T08:47:34;11.30;99.90
52435;DHT22;38354;52.892;6.148;2023-03-23T08:50:01;11.40;99.90
52435;DHT22;38354;52.892;6.148;2023-03-23T08:52:28;11.40;99.90
52435;DHT22;38354;52.892;6.148;2023-03-23T08:54:54;11.70;99.90
52435;DHT22;38354;52.892;6.148;2023-03-23T08:57:20;12.00;99.90
52435;DHT22;38354;52.892;6.148;2023-03-23T08:59:46;12.20;99.90
52435;DHT22;38354;52.892;6.148;2023-03-23T09:02:12;12.30;99.90
52435;DHT22;38354;52.892;6.148;2023-03-23T09:04:39;12.30;99.90
52435;DHT22;38354;52.892;6.148;2023-03-23T09:07:11;12.20;99.90
52435;DHT22;38354;52.892;6.148;2023-03-23T09:09:38;12.10;99.90
52435;DHT22;38354;52.892;6.148;2023-03-23T09:12:08;12.00;99.90
52435;DHT22;38354;52.892;6.148;2023-03-23T09:14:35;12.00;99.90
52435;DHT22;38354;52.892;6.148;2023-03-23T09:17:01;12.10;99.90
52435;DHT22;38354;52.892;6.148;2023-03-23T09:19:28;12.00;99.90
52435;DHT22;38354;52.892;6.148;2023-03-23T09:21:54;12.00;99.90
52435;DHT22;38354;52.892;6.148;2023-03-23T09:24:20;12.00;99.90
52435;DHT22;38354;52.892;6.148;2023-03-23T09:26:46;12.20;99.90
52435;DHT22;38354;52.892;6.148;2023-03-23T09:29:12;12.30;99.90
52435;DHT22;38354;52.892;6.148;2023-03-23T09:31:39;12.40;99.90
52435;DHT22;38354;52.892;6.148;2023-03-23T09:34:08;12.50;99.90
52435;DHT22;38354;52.892;6.148;2023-03-23T09:36:36;12.50;99.90
52435;DHT22;38354;52.892;6.148;2023-03-23T09:39:07;12.80;99.90
52435;DHT22;38354;52.892;6.148;2023-03-23T09:42:01;13.10;99.90
52435;DHT22;38354;52.892;6.148;2023-03-23T09:49:48;13.10;99.90
52435;DHT22;38354;52.892;6.148;2023-03-23T09:52:17;13.00;99.90
52435;DHT22;38354;52.892;6.148;2023-03-23T09:54:47;12.90;99.90
52435;DHT22;38354;52.892;6.148;2023-03-23T09:57:30;12.70;99.90
52435;DHT22;38354;52.892;6.148;2023-03-23T10:00:24;12.60;99.90
52435;DHT22;38354;52.892;6.148;2023-03-23T10:03:14;12.50;99.90
52435;DHT22;38354;52.892;6.148;2023-03-23T10:08:16;12.60;99.90
52435;DHT22;38354;52.892;6.148;2023-03-23T10:11:23;12.60;99.90
52435;DHT22;38354;52.892;6.148;2023-03-23T10:14:13;12.60;99.90
52435;DHT22;38354;52.892;6.148;2023-03-23T10:22:48;13.00;99.90
52435;DHT22;38354;52.892;6.148;2023-03-23T10:25:22;13.10;99.90
52435;DHT22;38354;52.892;6.148;2023-03-23T10:28:03;13.10;99.90
52435;DHT22;38354;52.892;6.148;2023-03-23T10:30:56;13.30;99.90
52435;DHT22;38354;52.892;6.148;2023-03-23T10:33:41;13.20;99.90
52435;DHT22;38354;52.892;6.148;2023-03-23T10:36:27;13.00;99.90
52435;DHT22;38354;52.892;6.148;2023-03-23T10:39:00;13.00;99.90
52435;DHT22;38354;52.892;6.148;2023-03-23T10:41:27;13.00;99.90
52435;DHT22;38354;52.892;6.148;2023-03-23T10:43:53;13.00;99.90
52435;DHT22;38354;52.892;6.148;2023-03-23T10:48:58;13.00;99.90
52435;DHT22;38354;52.892;6.148;2023-03-23T10:51:33;13.30;99.90
52435;DHT22;38354;52.892;6.148;2023-03-23T10:54:01;13.40;99.90
52435;DHT22;38354;52.892;6.148;2023-03-23T10:56:37;13.30;99.90
52435;DHT22;38354;52.892;6.148;2023-03-23T10:59:21;13.30;99.90
52435;DHT22;38354;52.892;6.148;2023-03-23T11:01:50;13.20;99.90
52435;DHT22;38354;52.892;6.148;2023-03-23T11:04:18;13.40;99.90
52435;DHT22;38354;52.892;6.148;2023-03-23T11:06:58;13.40;99.90
52435;DHT22;38354;52.892;6.148;2023-03-23T11:09:52;13.60;99.90
52435;DHT22;38354;52.892;6.148;2023-03-23T11:12:19;13.90;99.90
52435;DHT22;38354;52.892;6.148;2023-03-23T11:14:46;13.90;99.90
52435;DHT22;38354;52.892;6.148;2023-03-23T11:17:22;13.70;99.90
52435;DHT22;38354;52.892;6.148;2023-03-23T11:19:49;13.60;99.90
52435;DHT22;38354;52.892;6.148;2023-03-23T11:22:26;13.50;99.90
52435;DHT22;38354;52.892;6.148;2023-03-23T11:24:54;13.40;99.90
52435;DHT22;38354;52.892;6.148;2023-03-23T11:27:21;13.50;99.90
52435;DHT22;38354;52.892;6.148;2023-03-23T11:30:01;13.50;99.90
52435;DHT22;38354;52.892;6.148;2023-03-23T11:32:34;13.60;99.90
52435;DHT22;38354;52.892;6.148;2023-03-23T11:35:11;13.70;99.90
52435;DHT22;38354;52.892;6.148;2023-03-23T11:37:42;13.70;99.90
52435;DHT22;38354;52.892;6.148;2023-03-23T11:42:44;13.90;99.90
52435;DHT22;38354;52.892;6.148;2023-03-23T11:45:39;14.20;99.90
52435;DHT22;38354;52.892;6.148;2023-03-23T11:48:35;14.40;99.90
52435;DHT22;38354;52.892;6.148;2023-03-23T11:51:20;14.60;99.90
52435;DHT22;38354;52.892;6.148;2023-03-23T11:54:02;14.80;99.90
52435;DHT22;38354;52.892;6.148;2023-03-23T11:56:34;14.70;99.90
52435;DHT22;38354;52.892;6.148;2023-03-23T11:59:00;14.70;99.90
52435;DHT22;38354;52.892;6.148;2023-03-23T12:01:47;14.70;99.90
52435;DHT22;38354;52.892;6.148;2023-03-23T12:07:22;14.60;99.90
52435;DHT22;38354;52.892;6.148;2023-03-23T12:15:42;15.20;99.90
52435;DHT22;38354;52.892;6.148;2023-03-23T12:23:42;15.20;99.90
52435;DHT22;38354;52.892;6.148;2023-03-23T12:26:34;15.30;99.90
52435;DHT22;38354;52.892;6.148;2023-03-23T12:35:01;14.70;99.90
52435;DHT22;38354;52.892;6.148;2023-03-23T12:37:55;14.60;99.90
52435;DHT22;38354;52.892;6.148;2023-03-23T12:43:25;14.50;99.90
52435;DHT22;38354;52.892;6.148;2023-03-23T12:46:22;14.60;99.90
52435;DHT22;38354;52.892;6.148;2023-03-23T12:51:38;14.90;99.90
52435;DHT22;38354;52.892;6.148;2023-03-23T12:54:12;15.00;99.90
52435;DHT22;38354;52.892;6.148;2023-03-23T12:56:47;15.20;99.90
52435;DHT22;38354;52.892;6.148;2023-03-23T12:59:39;15.30;99.90
52435;DHT22;38354;52.892;6.148;2023-03-23T13:02:18;15.40;99.90
52435;DHT22;38354;52.892;6.148;2023-03-23T13:04:56;15.50;99.90
52435;DHT22;38354;52.892;6.148;2023-03-23T13:07:28;15.70;99.90
52435;DHT22;38354;52.892;6.148;2023-03-23T13:12:46;16.10;99.90
52435;DHT22;38354;52.892;6.148;2023-03-23T13:18:37;16.60;99.90
52435;DHT22;38354;52.892;6.148;2023-03-23T13:21:26;16.40;99.90
52435;DHT22;38354;52.892;6.148;2023-03-23T13:24:14;15.90;99.90
52435;DHT22;38354;52.892;6.148;2023-03-23T13:26:42;15.90;99.90
52435;DHT22;38354;52.892;6.148;2023-03-23T13:29:13;15.80;99.90
52435;DHT22;38354;52.892;6.148;2023-03-23T13:31:41;16.10;99.90
52435;DHT22;38354;52.892;6.148;2023-03-23T13:34:19;16.10;99.90
52435;DHT22;38354;52.892;6.148;2023-03-23T13:37:01;16.10;99.90
52435;DHT22;38354;52.892;6.148;2023-03-23T13:39:36;16.00;99.90
52435;DHT22;38354;52.892;6.148;2023-03-23T13:49:58;15.40;99.90
52435;DHT22;38354;52.892;6.148;2023-03-23T13:52:37;15.60;99.90
52435;DHT22;38354;52.892;6.148;2023-03-23T14:05:38;15.20;99.90
52435;DHT22;38354;52.892;6.148;2023-03-23T14:08:24;15.10;99.90
52435;DHT22;38354;52.892;6.148;2023-03-23T14:10:52;15.30;99.90
52435;DHT22;38354;52.892;6.148;2023-03-23T14:13:41;15.40;99.90
52435;DHT22;38354;52.892;6.148;2023-03-23T14:16:23;15.60;99.90
52435;DHT22;38354;52.892;6.148;2023-03-23T14:19:00;15.60;99.90
52435;DHT22;38354;52.892;6.148;2023-03-23T14:21:38;15.80;99.90
52435;DHT22;38354;52.892;6.148;2023-03-23T14:26:53;16.00;99.90
52435;DHT22;38354;52.892;6.148;2023-03-23T14:29:21;16.10;99.90
52435;DHT22;38354;52.892;6.148;2023-03-23T14:31:56;16.20;99.90
52435;DHT22;38354;52.892;6.148;2023-03-23T14:34:25;16.00;99.90
52435;DHT22;38354;52.892;6.148;2023-03-23T14:36:52;16.10;99.90
52435;DHT22;38354;52.892;6.148;2023-03-23T14:39:29;16.30;99.90
52435;DHT22;38354;52.892;6.148;2023-03-23T14:42:02;16.30;99.90
52435;DHT22;38354;52.892;6.148;2023-03-23T14:44:34;16.20;99.90
52435;DHT22;38354;52.892;6.148;2023-03-23T14:47:06;16.20;99.90
52435;DHT22;38354;52.892;6.148;2023-03-23T14:49:38;16.20;99.90
52435;DHT22;38354;52.892;6.148;2023-03-23T14:52:11;16.20;99.90
52435;DHT22;38354;52.892;6.148;2023-03-23T14:54:37;16.30;99.90
52435;DHT22;38354;52.892;6.148;2023-03-23T14:57:19;16.30;99.90
52435;DHT22;38354;52.892;6.148;2023-03-23T14:59:48;16.30;99.90
52435;DHT22;38354;52.892;6.148;2023-03-23T15:02:22;16.40;99.90
52435;DHT22;38354;52.892;6.148;2023-03-23T15:04:58;16.30;99.90
52435;DHT22;38354;52.892;6.148;2023-03-23T15:07:30;16.30;99.90
52435;DHT22;38354;52.892;6.148;2023-03-23T15:09:56;16.10;99.90
52435;DHT22;38354;52.892;6.148;2023-03-23T15:12:26;16.20;99.90
52435;DHT22;38354;52.892;6.148;2023-03-23T15:14:57;16.20;99.90
52435;DHT22;38354;52.892;6.148;2023-03-23T15:17:27;16.30;99.90
52435;DHT22;38354;52.892;6.148;2023-03-23T15:19:55;16.00;99.90
52435;DHT22;38354;52.892;6.148;2023-03-23T15:22:31;16.00;99.90
52435;DHT22;38354;52.892;6.148;2023-03-23T15:27:41;15.80;99.90
52435;DHT22;38354;52.892;6.148;2023-03-23T15:32:52;15.70;99.90
52435;DHT22;38354;52.892;6.148;2023-03-23T15:35:23;15.70;99.90
52435;DHT22;38354;52.892;6.148;2023-03-23T15:38:34;15.70;99.90
52435;DHT22;38354;52.892;6.148;2023-03-23T15:41:03;15.60;99.90
52435;DHT22;38354;52.892;6.148;2023-03-23T15:43:35;15.80;99.90
52435;DHT22;38354;52.892;6.148;2023-03-23T15:51:24;15.70;99.90
52435;DHT22;38354;52.892;6.148;2023-03-23T15:53:52;15.70;99.90
52435;DHT22;38354;52.892;6.148;2023-03-23T15:56:18;15.60;99.90
52435;DHT22;38354;52.892;6.148;2023-03-23T15:58:44;15.70;99.90
52435;DHT22;38354;52.892;6.148;2023-03-23T16:03:49;15.90;99.90
52435;DHT22;38354;52.892;6.148;2023-03-23T16:06:18;15.70;99.90
52435;DHT22;38354;52.892;6.148;2023-03-23T16:08:44;15.50;99.90
52435;DHT22;38354;52.892;6.148;2023-03-23T16:11:15;15.50;99.90
52435;DHT22;38354;52.892;6.148;2023-03-23T16:13:41;15.30;99.90
52435;DHT22;38354;52.892;6.148;2023-03-23T16:16:17;15.00;99.90
52435;DHT22;38354;52.892;6.148;2023-03-23T16:18:43;14.80;99.90
52435;DHT22;38354;52.892;6.148;2023-03-23T16:21:09;14.60;99.90
52435;DHT22;38354;52.892;6.148;2023-03-23T16:23:35;14.60;99.90
52435;DHT22;38354;52.892;6.148;2023-03-23T16:26:01;14.60;99.90
52435;DHT22;38354;52.892;6.148;2023-03-23T16:28:26;14.50;99.90
52435;DHT22;38354;52.892;6.148;2023-03-23T16:30:52;14.50;99.90
52435;DHT22;38354;52.892;6.148;2023-03-23T16:33:18;14.50;99.90
52435;DHT22;38354;52.892;6.148;2023-03-23T16:35:43;14.40;99.90
52435;DHT22;38354;52.892;6.148;2023-03-23T16:38:15;14.30;99.90
52435;DHT22;38354;52.892;6.148;2023-03-23T16:40:42;14.40;99.90
52435;DHT22;38354;52.892;6.148;2023-03-23T16:43:09;14.40;99.90
52435;DHT22;38354;52.892;6.148;2023-03-23T16:45:39;14.30;99.90
52435;DHT22;38354;52.892;6.148;2023-03-23T16:48:05;14.30;99.90
52435;DHT22;38354;52.892;6.148;2023-03-23T16:50:33;14.20;99.90
52435;DHT22;38354;52.892;6.148;2023-03-23T16:52:59;14.00;99.90
52435;DHT22;38354;52.892;6.148;2023-03-23T16:55:26;13.90;99.90
52435;DHT22;38354;52.892;6.148;2023-03-23T16:57:53;13.80;99.90
52435;DHT22;38354;52.892;6.148;2023-03-23T17:00:19;13.80;99.90
52435;DHT22;38354;52.892;6.148;2023-03-23T17:02:47;13.70;99.90
52435;DHT22;38354;52.892;6.148;2023-03-23T17:05:14;13.60;99.90
52435;DHT22;38354;52.892;6.148;2023-03-23T17:07:42;13.60;99.90
52435;DHT22;38354;52.892;6.148;2023-03-23T17:10:09;13.60;99.90
52435;DHT22;38354;52.892;6.148;2023-03-23T17:12:35;13.60;99.90
52435;DHT22;38354;52.892;6.148;2023-03-23T17:15:02;13.60;99.90
52435;DHT22;38354;52.892;6.148;2023-03-23T17:17:28;13.60;99.90
52435;DHT22;38354;52.892;6.148;2023-03-23T17:19:53;13.60;99.90
52435;DHT22;38354;52.892;6.148;2023-03-23T17:22:19;13.60;99.90
52435;DHT22;38354;52.892;6.148;2023-03-23T17:24:45;13.60;99.90
52435;DHT22;38354;52.892;6.148;2023-03-23T17:27:13;13.50;99.90
52435;DHT22;38354;52.892;6.148;2023-03-23T17:29:39;13.50;99.90
52435;DHT22;38354;52.892;6.148;2023-03-23T17:32:04;13.50;99.90
52435;DHT22;38354;52.892;6.148;2023-03-23T17:34:30;13.50;99.90
52435;DHT22;38354;52.892;6.148;2023-03-23T17:36:56;13.40;99.90
52435;DHT22;38354;52.892;6.148;2023-03-23T17:39:21;13.40;99.90
52435;DHT22;38354;52.892;6.148;2023-03-23T17:41:47;13.40;99.90
52435;DHT22;38354;52.892;6.148;2023-03-23T17:44:13;13.40;99.90
52435;DHT22;38354;52.892;6.148;2023-03-23T17:46:39;13.40;99.90
52435;DHT22;38354;52.892;6.148;2023-03-23T17:49:04;13.40;99.90
52435;DHT22;38354;52.892;6.148;2023-03-23T17:51:31;13.40;99.90
52435;DHT22;38354;52.892;6.148;2023-03-23T17:53:57;13.30;99.90
52435;DHT22;38354;52.892;6.148;2023-03-23T17:56:22;13.30;99.90
52435;DHT22;38354;52.892;6.148;2023-03-23T17:58:48;13.30;99.90
52435;DHT22;38354;52.892;6.148;2023-03-23T18:01:15;13.20;99.90
52435;DHT22;38354;52.892;6.148;2023-03-23T18:03:40;13.10;99.90
52435;DHT22;38354;52.892;6.148;2023-03-23T18:06:07;13.10;99.90
52435;DHT22;38354;52.892;6.148;2023-03-23T18:08:33;13.10;99.90
52435;DHT22;38354;52.892;6.148;2023-03-23T18:11:00;13.00;99.90
52435;DHT22;38354;52.892;6.148;2023-03-23T18:13:28;13.00;99.90
52435;DHT22;38354;52.892;6.148;2023-03-23T18:15:55;13.00;99.90
52435;DHT22;38354;52.892;6.148;2023-03-23T18:18:22;12.90;99.90
52435;DHT22;38354;52.892;6.148;2023-03-23T18:21:05;12.90;99.90
52435;DHT22;38354;52.892;6.148;2023-03-23T18:23:33;12.90;99.90
52435;DHT22;38354;52.892;6.148;2023-03-23T18:26:05;12.90;99.90
52435;DHT22;38354;52.892;6.148;2023-03-23T18:28:31;12.80;99.90
52435;DHT22;38354;52.892;6.148;2023-03-23T18:31:05;12.80;99.90
52435;DHT22;38354;52.892;6.148;2023-03-23T18:33:31;12.80;99.90
52435;DHT22;38354;52.892;6.148;2023-03-23T18:36:00;12.80;99.90
52435;DHT22;38354;52.892;6.148;2023-03-23T18:38:27;12.80;99.90
52435;DHT22;38354;52.892;6.148;2023-03-23T18:40:52;12.80;99.90
52435;DHT22;38354;52.892;6.148;2023-03-23T18:43:18;12.70;99.90
52435;DHT22;38354;52.892;6.148;2023-03-23T18:45:49;12.70;99.90
52435;DHT22;38354;52.892;6.148;2023-03-23T18:48:15;12.70;99.90
52435;DHT22;38354;52.892;6.148;2023-03-23T18:50:41;12.70;99.90
52435;DHT22;38354;52.892;6.148;2023-03-23T18:53:10;12.70;99.90
52435;DHT22;38354;52.892;6.148;2023-03-23T18:55:35;12.70;99.90
52435;DHT22;38354;52.892;6.148;2023-03-23T18:58:01;12.70;99.90
52435;DHT22;38354;52.892;6.148;2023-03-23T19:00:27;12.70;99.90
52435;DHT22;38354;52.892;6.148;2023-03-23T19:02:53;12.70;99.90
52435;DHT22;38354;52.892;6.148;2023-03-23T19:05:20;12.80;99.90
52435;DHT22;38354;52.892;6.148;2023-03-23T19:07:45;12.80;99.90
52435;DHT22;38354;52.892;6.148;2023-03-23T19:10:11;12.80;99.90
52435;DHT22;38354;52.892;6.148;2023-03-23T19:12:37;12.80;99.90
52435;DHT22;38354;52.892;6.148;2023-03-23T19:15:03;12.80;99.90
52435;DHT22;38354;52.892;6.148;2023-03-23T19:17:32;12.70;99.90
52435;DHT22;38354;52.892;6.148;2023-03-23T19:19:58;12.60;99.90
52435;DHT22;38354;52.892;6.148;2023-03-23T19:22:23;12.50;99.90
52435;DHT22;38354;52.892;6.148;2023-03-23T19:24:49;12.50;99.90
52435;DHT22;38354;52.892;6.148;2023-03-23T19:27:14;12.40;99.90
52435;DHT22;38354;52.892;6.148;2023-03-23T19:29:40;12.40;99.90
52435;DHT22;38354;52.892;6.148;2023-03-23T19:32:06;12.30;99.90
52435;DHT22;38354;52.892;6.148;2023-03-23T19:34:31;12.30;99.90
52435;DHT22;38354;52.892;6.148;2023-03-23T19:36:58;12.30;99.90
52435;DHT22;38354;52.892;6.148;2023-03-23T19:39:23;12.20;99.90
52435;DHT22;38354;52.892;6.148;2023-03-23T19:41:49;12.20;99.90
52435;DHT22;38354;52.892;6.148;2023-03-23T19:44:15;12.20;99.90
52435;DHT22;38354;52.892;6.148;2023-03-23T19:46:41;12.10;99.90
52435;DHT22;38354;52.892;6.148;2023-03-23T19:49:06;12.10;99.90
52435;DHT22;38354;52.892;6.148;2023-03-23T19:51:33;12.00;99.90
52435;DHT22;38354;52.892;6.148;2023-03-23T19:53:59;12.00;99.90
52435;DHT22;38354;52.892;6.148;2023-03-23T19:56:25;11.90;99.90
52435;DHT22;38354;52.892;6.148;2023-03-23T19:58:50;11.90;99.90
52435;DHT22;38354;52.892;6.148;2023-03-23T20:09:03;11.70;99.90
52435;DHT22;38354;52.892;6.148;2023-03-23T20:11:29;11.70;99.90
52435;DHT22;38354;52.892;6.148;2023-03-23T20:13:58;11.60;99.90
52435;DHT22;38354;52.892;6.148;2023-03-23T20:16:27;11.60;99.90
52435;DHT22;38354;52.892;6.148;2023-03-23T20:18:56;11.50;99.90
52435;DHT22;38354;52.892;6.148;2023-03-23T20:21:22;11.50;99.90
52435;DHT22;38354;52.892;6.148;2023-03-23T20:23:51;11.40;99.90
52435;DHT22;38354;52.892;6.148;2023-03-23T20:26:36;11.40;99.90
52435;DHT22;38354;52.892;6.148;2023-03-23T20:29:02;11.40;99.90
52435;DHT22;38354;52.892;6.148;2023-03-23T20:31:31;11.40;99.90
52435;DHT22;38354;52.892;6.148;2023-03-23T20:33:59;11.40;99.90
52435;DHT22;38354;52.892;6.148;2023-03-23T20:36:31;11.40;99.90
52435;DHT22;38354;52.892;6.148;2023-03-23T20:39:02;11.40;99.90
52435;DHT22;38354;52.892;6.148;2023-03-23T20:41:29;11.40;99.90
52435;DHT22;38354;52.892;6.148;2023-03-23T20:43:55;11.30;99.90
52435;DHT22;38354;52.892;6.148;2023-03-23T20:46:22;11.30;99.90
52435;DHT22;38354;52.892;6.148;2023-03-23T20:48:48;11.30;99.90
52435;DHT22;38354;52.892;6.148;2023-03-23T20:51:16;11.30;99.90
52435;DHT22;38354;52.892;6.148;2023-03-23T20:53:42;11.30;99.90
52435;DHT22;38354;52.892;6.148;2023-03-23T20:56:09;11.30;99.90
52435;DHT22;38354;52.892;6.148;2023-03-23T20:58:36;11.30;99.90
52435;DHT22;38354;52.892;6.148;2023-03-23T21:01:04;11.30;99.90
52435;DHT22;38354;52.892;6.148;2023-03-23T21:03:40;11.30;99.90
52435;DHT22;38354;52.892;6.148;2023-03-23T21:06:06;11.30;99.90
52435;DHT22;38354;52.892;6.148;2023-03-23T21:08:37;11.30;99.90
52435;DHT22;38354;52.892;6.148;2023-03-23T21:11:04;11.30;99.90
52435;DHT22;38354;52.892;6.148;2023-03-23T21:13:31;11.20;99.90
52435;DHT22;38354;52.892;6.148;2023-03-23T21:15:57;11.30;99.90
52435;DHT22;38354;52.892;6.148;2023-03-23T21:18:24;11.20;99.90
52435;DHT22;38354;52.892;6.148;2023-03-23T21:24:34;11.30;99.90
52435;DHT22;38354;52.892;6.148;2023-03-23T21:27:15;11.30;99.90
52435;DHT22;38354;52.892;6.148;2023-03-23T21:30:25;11.30;99.90
52435;DHT22;38354;52.892;6.148;2023-03-23T21:33:13;11.30;99.90
52435;DHT22;38354;52.892;6.148;2023-03-23T21:35:50;11.30;99.90
52435;DHT22;38354;52.892;6.148;2023-03-23T21:38:30;11.20;99.90